Pilot Boat 183 — FT7120 — position and weather

sailwx.info

Track history (hours):
 
Tides and Currents Weather Stations Pressure Air Temp Water Temp Dewpoint Dewpoint Depression Visibility Wind Speed Wind Dir Waves Ship Positions

Pilot Boat 183

Last reported at 2014-Oct-06 20:33 UTC. Time now 2014-Oct-20 17:59 UTC.
Position N 43°23' E 004°59'.
Warning: this ship's position is 13 days out of date.

Length 16 m; draft 1 m.

Type: Pilot. MMSI: 227005760.

Date/timePositionNaut miles runAvg speedWind from/ knotsBaromVisibWave heightAir tempDewpointWater temp
2014-Oct-06 20:33N 43°23' E 004°59'  
2014-Oct-02 12:33N 43°24' E 004°59'0 0.0
2014-Oct-02 10:33N 43°24' E 004°59'0 0.0
2014-Oct-02 09:32N 43°24' E 004°59'0 0.0
2014-Oct-02 08:34N 43°24' E 004°59'0 0.0
2014-Oct-02 07:34N 43°24' E 004°59'0 0.0
2014-Oct-01 16:16N 43°24' E 004°59'0 0.0
2014-Oct-01 15:33N 43°24' E 004°59'0 0.0
2014-Oct-01 14:33N 43°24' E 004°59'0 0.0
2014-Oct-01 13:33N 43°24' E 004°59'0 0.0
2014-Oct-01 12:33N 43°24' E 004°59'0 0.0
2014-Oct-01 11:33N 43°24' E 004°59'0 0.0
2014-Oct-01 10:33N 43°24' E 004°59'0 0.0
2014-Oct-01 09:33N 43°24' E 004°59'0 0.0
2014-Oct-01 08:33N 43°24' E 004°59'0 0.0
2014-Oct-01 07:34N 43°24' E 004°59'0 0.0
2014-Oct-01 06:34N 43°24' E 004°59'0 0.0
2014-Oct-01 05:34N 43°24' E 004°59'0 0.0
2014-Oct-01 04:34N 43°24' E 004°59'0 0.0
2014-Oct-01 03:34N 43°24' E 004°59'0 0.0
2014-Oct-01 02:33N 43°24' E 004°59'0 0.0
2014-Oct-01 01:34N 43°24' E 004°59'0 0.0
2014-Oct-01 00:34N 43°24' E 004°59'0 0.0
2014-Sep-30 23:33N 43°24' E 004°59'0 0.0
2014-Sep-30 22:34N 43°24' E 004°59'0 0.0
2014-Sep-30 21:34N 43°24' E 004°59'0 0.0
2014-Sep-30 20:33N 43°24' E 004°59'0 0.0
2014-Sep-30 19:34N 43°24' E 004°59'0 0.0
2014-Sep-30 18:34N 43°24' E 004°59'0 0.0
2014-Sep-30 17:34N 43°24' E 004°59'0 0.0
2014-Sep-30 16:33N 43°24' E 004°59'0 0.0
2014-Sep-30 15:34N 43°24' E 004°59'0 0.0
2014-Sep-30 14:33N 43°24' E 004°59'0 0.0
2014-Sep-30 13:33N 43°24' E 004°59'0 0.0
2014-Sep-30 12:33N 43°24' E 004°59'0 0.0
2014-Sep-30 11:34N 43°24' E 004°59'0 0.0
2014-Sep-30 10:34N 43°24' E 004°59'0 0.0
2014-Sep-30 09:34N 43°24' E 004°59'0 0.0
2014-Sep-30 08:34N 43°24' E 004°59'0 0.0
2014-Sep-30 07:34N 43°24' E 004°59'0 0.0
2014-Sep-30 02:33N 43°24' E 004°59'4 1.3
2014-Sep-29 23:34N 43°20' E 004°56'4 0.6
2014-Sep-29 16:28N 43°24' E 004°59'3 0.9
2014-Sep-29 13:33N 43°23' E 004°55'3 2.4
2014-Sep-29 12:30N 43°24' E 004°59'2 1.9
2014-Sep-29 11:33N 43°22' E 004°60'2 0.1
2014-Sep-28 15:28N 43°24' E 004°59'1 1.6
2014-Sep-28 14:34N 43°22' E 004°59'  
Track history (hours):
 
Tides and Currents Weather Stations Pressure Air Temp Water Temp Dewpoint Dewpoint Depression Visibility Wind Speed Wind Dir Waves Ship Positions

Pilot Boat 183

Last reported at 2014-Oct-06 20:33 UTC. Time now 2014-Oct-20 17:59 UTC.
Position N 43°23' E 004°59'.
Warning: this ship's position is 13 days out of date.

Length 16 m; draft 1 m.

Type: Pilot. MMSI: 227005760.

Date/timePositionNaut miles runAvg speedWind from/ knotsBaromVisibWave heightAir tempDewpointWater temp
2014-Oct-06 20:33N 43°23' E 004°59'  
2014-Oct-02 12:33N 43°24' E 004°59'0 0.0
2014-Oct-02 10:33N 43°24' E 004°59'0 0.0
2014-Oct-02 09:32N 43°24' E 004°59'0 0.0
2014-Oct-02 08:34N 43°24' E 004°59'0 0.0
2014-Oct-02 07:34N 43°24' E 004°59'0 0.0
2014-Oct-01 16:16N 43°24' E 004°59'0 0.0
2014-Oct-01 15:33N 43°24' E 004°59'0 0.0
2014-Oct-01 14:33N 43°24' E 004°59'0 0.0
2014-Oct-01 13:33N 43°24' E 004°59'0 0.0
2014-Oct-01 12:33N 43°24' E 004°59'0 0.0
2014-Oct-01 11:33N 43°24' E 004°59'0 0.0
2014-Oct-01 10:33N 43°24' E 004°59'0 0.0
2014-Oct-01 09:33N 43°24' E 004°59'0 0.0
2014-Oct-01 08:33N 43°24' E 004°59'0 0.0
2014-Oct-01 07:34N 43°24' E 004°59'0 0.0
2014-Oct-01 06:34N 43°24' E 004°59'0 0.0
2014-Oct-01 05:34N 43°24' E 004°59'0 0.0
2014-Oct-01 04:34N 43°24' E 004°59'0 0.0
2014-Oct-01 03:34N 43°24' E 004°59'0 0.0
2014-Oct-01 02:33N 43°24' E 004°59'0 0.0
2014-Oct-01 01:34N 43°24' E 004°59'0 0.0
2014-Oct-01 00:34N 43°24' E 004°59'0 0.0
2014-Sep-30 23:33N 43°24' E 004°59'0 0.0
2014-Sep-30 22:34N 43°24' E 004°59'0 0.0
2014-Sep-30 21:34N 43°24' E 004°59'0 0.0
2014-Sep-30 20:33N 43°24' E 004°59'0 0.0
2014-Sep-30 19:34N 43°24' E 004°59'0 0.0
2014-Sep-30 18:34N 43°24' E 004°59'0 0.0
2014-Sep-30 17:34N 43°24' E 004°59'0 0.0
2014-Sep-30 16:33N 43°24' E 004°59'0 0.0
2014-Sep-30 15:34N 43°24' E 004°59'0 0.0
2014-Sep-30 14:33N 43°24' E 004°59'0 0.0
2014-Sep-30 13:33N 43°24' E 004°59'0 0.0
2014-Sep-30 12:33N 43°24' E 004°59'0 0.0
2014-Sep-30 11:34N 43°24' E 004°59'0 0.0
2014-Sep-30 10:34N 43°24' E 004°59'0 0.0
2014-Sep-30 09:34N 43°24' E 004°59'0 0.0
2014-Sep-30 08:34N 43°24' E 004°59'0 0.0
2014-Sep-30 07:34N 43°24' E 004°59'0 0.0
2014-Sep-30 02:33N 43°24' E 004°59'4 1.3
2014-Sep-29 23:34N 43°20' E 004°56'4 0.6
2014-Sep-29 16:28N 43°24' E 004°59'3 0.9
2014-Sep-29 13:33N 43°23' E 004°55'3 2.4
2014-Sep-29 12:30N 43°24' E 004°59'2 1.9
2014-Sep-29 11:33N 43°22' E 004°60'2 0.1
2014-Sep-28 15:28N 43°24' E 004°59'1 1.6
2014-Sep-28 14:34N 43°22' E 004°59'  

Dump ship's entire track history